Time;durP1;ratioP1;P1;durP2;ratioP2;P2;SDS_P1;SDS_P2;PMS_P1;PMS_P2;Temp;Humidity;BMP_temperature;BMP_pressure;BME280_temperature;BME280_humidity;BME280_pressure;Samples;Min_cycle;Max_cycle;Signal;HPM_P1;HPM_P2
2022/03/01 00:00:20;;;;;;;12.63;1.42;;;22.80;99.90;;;;;;4971779;28;20027;-72
2022/03/01 00:02:48;;;;;;;11.85;1.42;;;22.80;99.90;;;;;;4970355;28;20491;-71
2022/03/01 00:05:15;;;;;;;15.30;1.73;;;23.00;99.90;;;;;;4971964;28;20033;-70
2022/03/01 00:07:42;;;;;;;10.73;1.40;;;22.90;99.90;;;;;;4971762;28;20027;-71
2022/03/01 00:10:10;;;;;;;10.00;2.25;;;22.90;99.90;;;;;;4971787;28;20029;-71
2022/03/01 00:12:38;;;;;;;9.77;1.80;;;23.00;99.90;;;;;;4971953;28;20107;-71
2022/03/01 00:15:06;;;;;;;11.52;1.55;;;23.20;99.90;;;;;;4971866;28;20033;-71
2022/03/01 00:17:33;;;;;;;12.32;3.00;;;23.20;99.90;;;;;;4971860;28;20034;-70
2022/03/01 00:20:00;;;;;;;15.88;1.50;;;23.30;99.90;;;;;;4971847;28;20074;-72
2022/03/01 00:22:28;;;;;;;10.73;1.10;;;23.30;99.90;;;;;;4971532;28;20018;-72
2022/03/01 00:24:55;;;;;;;10.00;1.27;;;23.30;99.90;;;;;;4973480;28;20039;-72
2022/03/01 00:27:22;;;;;;;9.68;2.00;;;23.30;99.90;;;;;;4975371;28;20026;-73
2022/03/01 00:29:50;;;;;;;8.38;1.38;;;23.30;99.90;;;;;;4974112;28;20118;-71
2022/03/01 00:32:17;;;;;;;9.48;2.28;;;23.30;99.90;;;;;;4973829;28;20026;-71
2022/03/01 00:34:44;;;;;;;17.63;1.55;;;23.30;99.90;;;;;;4975629;28;20023;-74
2022/03/01 00:37:12;;;;;;;11.05;1.83;;;23.30;99.90;;;;;;4975143;28;20022;-75
2022/03/01 00:39:39;;;;;;;6.80;1.02;;;23.30;99.90;;;;;;4974018;28;20031;-74
2022/03/01 00:42:07;;;;;;;9.57;1.35;;;23.30;99.90;;;;;;4975612;28;20050;-74
2022/03/01 00:44:34;;;;;;;11.80;2.03;;;23.30;99.90;;;;;;4975386;28;20027;-73
2022/03/01 00:47:02;;;;;;;13.55;1.77;;;23.40;99.90;;;;;;4975203;28;20030;-74
2022/03/01 00:49:29;;;;;;;13.65;1.98;;;23.50;99.90;;;;;;4975280;28;20035;-72
2022/03/01 00:51:56;;;;;;;14.32;2.17;;;23.60;99.90;;;;;;4974910;28;20439;-74
2022/03/01 00:54:24;;;;;;;12.85;2.60;;;23.80;99.90;;;;;;4974917;28;20027;-73
2022/03/01 00:56:51;;;;;;;13.57;2.13;;;23.80;99.90;;;;;;4974765;28;20030;-74
2022/03/01 00:59:18;;;;;;;6.25;1.40;;;23.80;99.90;;;;;;4974722;28;20057;-73
2022/03/01 01:01:45;;;;;;;9.88;1.92;;;23.80;99.90;;;;;;4974557;28;20479;-73
2022/03/01 01:04:13;;;;;;;9.13;1.80;;;23.60;99.90;;;;;;4974533;28;20025;-72
2022/03/01 01:06:40;;;;;;;9.45;1.85;;;23.50;99.90;;;;;;4974729;28;20018;-72
2022/03/01 01:09:08;;;;;;;7.40;1.35;;;23.50;99.90;;;;;;4974829;28;20484;-71
2022/03/01 01:11:36;;;;;;;9.18;1.23;;;23.40;99.90;;;;;;4974641;28;20026;-72
2022/03/01 01:14:03;;;;;;;11.00;1.35;;;23.20;99.90;;;;;;4974550;28;20102;-72
2022/03/01 01:16:30;;;;;;;9.35;1.65;;;22.90;99.90;;;;;;4974928;28;20376;-71
2022/03/01 01:18:58;;;;;;;15.00;2.17;;;22.90;99.90;;;;;;4974550;28;20031;-72
2022/03/01 01:22:39;;;;;;;11.93;2.10;;;22.90;99.90;;;;;;4974661;28;20098;-72
2022/03/01 01:24:12;;;;;;;9.23;1.48;;;23.00;99.90;;;;;;4974427;28;20031;-72
2022/03/01 01:26:39;;;;;;;10.95;2.22;;;23.20;99.90;;;;;;4974313;28;20050;-72
2022/03/01 01:29:07;;;;;;;6.50;1.05;;;23.40;99.90;;;;;;4974286;28;20040;-72
2022/03/01 01:31:34;;;;;;;11.98;1.70;;;23.40;99.90;;;;;;4974362;28;20034;-72
2022/03/01 01:34:01;;;;;;;15.75;3.13;;;23.30;99.90;;;;;;4973808;28;20035;-74
2022/03/01 01:36:29;;;;;;;13.13;2.72;;;23.30;99.90;;;;;;4972902;28;20125;-73
2022/03/01 01:38:57;;;;;;;14.88;2.28;;;23.20;99.90;;;;;;4974524;28;20480;-72
2022/03/01 01:41:24;;;;;;;14.90;3.22;;;23.00;99.90;;;;;;4974620;28;20027;-73
2022/03/01 01:43:51;;;;;;;23.35;2.75;;;23.00;99.90;;;;;;4974242;28;20019;-72
2022/03/01 01:46:19;;;;;;;15.02;3.00;;;23.00;99.90;;;;;;4974353;28;20432;-71
2022/03/01 01:48:46;;;;;;;14.43;2.30;;;23.10;99.90;;;;;;4974124;28;20038;-73
2022/03/01 01:51:13;;;;;;;14.23;3.42;;;23.20;99.90;;;;;;4973935;28;20046;-73
2022/03/01 01:53:41;;;;;;;14.18;2.88;;;23.30;99.90;;;;;;4974134;28;20027;-73
2022/03/01 01:56:08;;;;;;;13.95;2.15;;;23.30;99.90;;;;;;4974122;28;20081;-73
2022/03/01 01:58:35;;;;;;;14.43;2.30;;;23.40;99.90;;;;;;4973644;28;20141;-73
2022/03/01 02:01:03;;;;;;;16.23;3.17;;;23.60;99.90;;;;;;4973614;28;20499;-73
2022/03/01 02:03:30;;;;;;;14.85;2.83;;;23.70;99.90;;;;;;4973455;28;20029;-71
2022/03/01 02:05:57;;;;;;;17.77;3.45;;;23.80;99.90;;;;;;4973967;28;20046;-72
2022/03/01 02:08:32;;;;;;;10.50;2.70;;;23.90;99.90;;;;;;4973387;28;20031;-71
2022/03/01 02:11:01;;;;;;;11.00;2.90;;;24.00;99.90;;;;;;4973480;28;20059;-71
2022/03/01 02:13:28;;;;;;;20.20;2.40;;;24.10;99.90;;;;;;4973491;28;20073;-71
2022/03/01 02:15:57;;;;;;;9.65;2.00;;;24.20;99.90;;;;;;4973620;28;20022;-72
2022/03/01 02:18:25;;;;;;;10.68;2.45;;;24.40;99.90;;;;;;4973636;28;20117;-72
2022/03/01 02:20:52;;;;;;;15.43;3.42;;;24.70;99.90;;;;;;4973670;28;20110;-72
2022/03/01 02:23:19;;;;;;;12.38;2.97;;;25.00;99.90;;;;;;4974307;28;20026;-72
2022/03/01 02:25:46;;;;;;;13.57;2.63;;;25.30;99.90;;;;;;4974421;28;20078;-74
2022/03/01 02:28:14;;;;;;;14.13;1.80;;;25.50;99.90;;;;;;4973931;28;20494;-73
2022/03/01 02:30:41;;;;;;;12.13;1.92;;;25.60;99.90;;;;;;4974022;28;20495;-73
2022/03/01 02:33:08;;;;;;;10.13;2.20;;;25.50;99.90;;;;;;4974120;28;20491;-73
2022/03/01 02:35:36;;;;;;;13.30;2.65;;;25.40;99.90;;;;;;4973929;28;20038;-71
2022/03/01 02:38:03;;;;;;;11.75;1.88;;;25.10;99.90;;;;;;4969419;28;20038;-70
2022/03/01 02:40:31;;;;;;;10.75;1.58;;;24.70;99.90;;;;;;4962969;28;20131;-71
2022/03/01 02:42:58;;;;;;;8.95;1.48;;;24.50;99.90;;;;;;4961534;28;20030;-71
2022/03/01 02:45:26;;;;;;;9.38;1.60;;;24.20;99.90;;;;;;4962649;28;20023;-72
2022/03/01 02:47:53;;;;;;;8.80;1.52;;;24.10;99.90;;;;;;4959937;28;20023;-73
2022/03/01 02:50:20;;;;;;;10.40;2.05;;;24.00;99.90;;;;;;4954681;28;20428;-72
2022/03/01 02:52:48;;;;;;;11.95;2.10;;;23.90;99.90;;;;;;4953526;29;20761;-71
2022/03/01 02:55:15;;;;;;;10.88;2.72;;;23.90;99.90;;;;;;4953175;29;20113;-72
2022/03/01 02:57:43;;;;;;;9.93;1.80;;;23.80;99.90;;;;;;4953144;28;20066;-72
2022/03/01 03:00:12;;;;;;;11.05;1.60;;;23.70;99.90;;;;;;4953711;28;20035;-71
2022/03/01 03:02:40;;;;;;;11.02;2.03;;;23.60;99.90;;;;;;4953822;29;20082;-72
2022/03/01 03:05:08;;;;;;;9.45;2.25;;;23.50;99.90;;;;;;4953467;28;20028;-72
2022/03/01 03:07:35;;;;;;;10.52;2.28;;;23.50;99.90;;;;;;4953245;28;20227;-71
2022/03/01 03:10:04;;;;;;;11.63;2.17;;;23.50;99.90;;;;;;4952053;28;20023;-71
2022/03/01 03:12:31;;;;;;;14.25;2.83;;;23.60;99.90;;;;;;4952385;29;20129;-69
2022/03/01 03:14:59;;;;;;;12.00;2.33;;;23.70;99.90;;;;;;4953141;29;20089;-69
2022/03/01 03:17:26;;;;;;;22.00;4.20;;;23.70;99.90;;;;;;4960230;28;20492;-71
2022/03/01 03:19:53;;;;;;;10.35;2.10;;;23.80;99.90;;;;;;4966338;28;20035;-72
2022/03/01 03:22:21;;;;;;;14.63;2.38;;;23.90;99.90;;;;;;4972336;28;20019;-72
2022/03/01 03:24:48;;;;;;;21.20;3.95;;;23.90;99.90;;;;;;4955860;28;20035;-70
2022/03/01 03:27:16;;;;;;;9.80;2.13;;;24.00;99.90;;;;;;4962532;28;20058;-70
2022/03/01 03:29:43;;;;;;;15.10;3.65;;;24.10;99.90;;;;;;4972535;28;20026;-71
2022/03/01 03:32:10;;;;;;;12.93;2.13;;;24.20;99.90;;;;;;4972116;28;20106;-72
2022/03/01 03:34:37;;;;;;;13.93;2.83;;;24.30;99.90;;;;;;4972131;28;20030;-72
2022/03/01 03:37:05;;;;;;;13.20;1.92;;;24.40;99.90;;;;;;4971441;28;20237;-71
2022/03/01 03:39:33;;;;;;;13.65;3.25;;;24.50;99.90;;;;;;4971444;28;20088;-70
2022/03/01 03:42:00;;;;;;;12.73;2.30;;;24.50;99.90;;;;;;4972301;28;20023;-70
2022/03/01 03:44:27;;;;;;;9.85;1.33;;;24.50;99.90;;;;;;4971918;28;20027;-73
2022/03/01 03:46:55;;;;;;;12.07;1.70;;;24.50;99.90;;;;;;4967600;28;20019;-71
2022/03/01 03:49:23;;;;;;;9.88;1.65;;;24.30;99.90;;;;;;4962501;28;20023;-72
2022/03/01 03:51:50;;;;;;;8.63;1.65;;;24.10;99.90;;;;;;4961587;28;20331;-73
2022/03/01 03:54:17;;;;;;;15.73;3.60;;;23.80;99.90;;;;;;4960080;28;20059;-73
2022/03/01 03:56:44;;;;;;;11.32;2.53;;;23.70;99.90;;;;;;4962890;28;20022;-71
2022/03/01 03:59:12;;;;;;;10.45;1.70;;;23.50;99.90;;;;;;4964445;28;20166;-72
2022/03/01 04:01:39;;;;;;;12.75;1.85;;;23.10;99.90;;;;;;4963909;28;20019;-71
2022/03/01 04:04:08;;;;;;;13.10;1.80;;;22.80;99.90;;;;;;4959938;28;20491;-72
2022/03/01 04:06:36;;;;;;;15.52;2.10;;;22.50;99.90;;;;;;4965585;28;20194;-71
2022/03/01 04:09:04;;;;;;;15.20;2.67;;;22.20;99.90;;;;;;4963200;28;20106;-71
2022/03/01 04:11:33;;;;;;;13.70;1.88;;;22.00;99.90;;;;;;4971992;28;20030;-70
2022/03/01 04:14:01;;;;;;;15.10;2.40;;;22.00;99.90;;;;;;4961808;28;20023;-71
2022/03/01 04:16:28;;;;;;;17.73;3.58;;;22.00;99.90;;;;;;4966371;28;20113;-71
2022/03/01 04:18:56;;;;;;;15.40;2.15;;;22.00;99.90;;;;;;4965383;28;20940;-72
2022/03/01 04:21:23;;;;;;;15.32;3.35;;;22.00;99.90;;;;;;4974581;28;20030;-71
2022/03/01 04:23:50;;;;;;;25.05;3.40;;;22.10;99.90;;;;;;4963266;28;20019;-72
2022/03/01 04:26:18;;;;;;;22.65;3.42;;;22.20;99.90;;;;;;4964668;28;20115;-74
2022/03/01 04:28:45;;;;;;;22.02;3.58;;;22.20;99.90;;;;;;4968022;28;20037;-70
2022/03/01 04:31:13;;;;;;;22.02;3.03;;;22.30;99.90;;;;;;4973355;28;20101;-72
2022/03/01 04:33:41;;;;;;;28.17;4.55;;;22.40;99.90;;;;;;4973009;28;20031;-72
2022/03/01 04:36:09;;;;;;;23.67;4.78;;;22.50;99.90;;;;;;4973980;28;20035;-72
2022/03/01 04:38:37;;;;;;;22.50;4.20;;;22.50;99.90;;;;;;4973910;28;20902;-73
2022/03/01 04:41:04;;;;;;;22.08;3.38;;;22.60;99.90;;;;;;4974993;28;20015;-72
2022/03/01 04:43:32;;;;;;;21.63;5.10;;;22.70;99.90;;;;;;4974434;28;20101;-73
2022/03/01 04:45:59;;;;;;;20.50;2.72;;;22.80;99.90;;;;;;4974376;28;20061;-74
2022/03/01 04:48:27;;;;;;;16.77;3.53;;;22.90;99.90;;;;;;4973762;28;20062;-74
2022/03/01 04:50:54;;;;;;;18.50;2.35;;;22.90;99.90;;;;;;4974579;28;20042;-72
2022/03/01 04:53:22;;;;;;;21.92;3.08;;;23.00;99.90;;;;;;4974879;28;20058;-73
2022/03/01 04:55:50;;;;;;;23.20;2.85;;;23.10;99.90;;;;;;4974350;28;20014;-72
2022/03/01 04:58:17;;;;;;;24.85;3.47;;;23.20;99.90;;;;;;4973456;28;20042;-71
2022/03/01 05:00:44;;;;;;;22.38;2.55;;;23.20;99.90;;;;;;4968306;28;20110;-72
2022/03/01 05:03:12;;;;;;;13.75;2.30;;;23.30;99.90;;;;;;4973399;28;20030;-73
2022/03/01 05:05:39;;;;;;;14.27;2.03;;;23.40;99.90;;;;;;4974564;28;20022;-74
2022/03/01 05:08:06;;;;;;;16.55;2.42;;;23.50;99.90;;;;;;4973459;28;20035;-73
2022/03/01 05:10:34;;;;;;;15.50;2.03;;;23.70;99.90;;;;;;4973341;28;20018;-73
2022/03/01 05:13:01;;;;;;;18.08;3.05;;;23.80;99.90;;;;;;4961802;28;20019;-76
2022/03/01 05:15:30;;;;;;;12.55;2.63;;;24.00;99.90;;;;;;4955254;29;20019;-74
2022/03/01 05:17:58;;;;;;;18.35;3.75;;;24.00;99.90;;;;;;4954769;29;20038;-74
2022/03/01 05:20:26;;;;;;;14.60;2.30;;;24.00;99.90;;;;;;4958877;28;20018;-75
2022/03/01 05:22:54;;;;;;;15.23;2.17;;;24.00;99.90;;;;;;4973666;28;20034;-73
2022/03/01 05:25:23;;;;;;;15.18;2.47;;;24.00;99.90;;;;;;4973802;28;20405;-74
2022/03/01 05:27:52;;;;;;;12.32;2.15;;;24.10;99.90;;;;;;4968603;28;20173;-74
2022/03/01 05:30:21;;;;;;;16.52;1.90;;;24.00;99.90;;;;;;4971757;28;21109;-74
2022/03/01 05:32:52;;;;;;;15.32;2.58;;;24.10;99.90;;;;;;4973735;28;20059;-75
2022/03/01 05:35:23;;;;;;;15.23;3.60;;;24.10;99.90;;;;;;4973670;28;20023;-74
2022/03/01 05:37:52;;;;;;;16.83;2.95;;;24.00;99.90;;;;;;4973382;28;20066;-72
2022/03/01 05:40:25;;;;;;;15.88;3.42;;;24.10;99.90;;;;;;4972424;28;20031;-74
2022/03/01 05:42:53;;;;;;;13.18;1.60;;;24.10;99.90;;;;;;4973491;28;20030;-73
2022/03/01 05:45:20;;;;;;;14.95;2.40;;;24.10;99.90;;;;;;4973896;28;20023;-75
2022/03/01 05:47:48;;;;;;;18.88;2.47;;;24.10;99.90;;;;;;4973060;28;20054;-73
2022/03/01 05:50:17;;;;;;;17.30;1.85;;;24.10;99.90;;;;;;4972868;28;20038;-74
2022/03/01 05:52:44;;;;;;;17.75;1.80;;;24.10;99.90;;;;;;4972828;28;20105;-74
2022/03/01 05:55:12;;;;;;;13.02;2.17;;;24.20;99.90;;;;;;4973055;28;20082;-71
2022/03/01 05:57:40;;;;;;;18.23;2.80;;;24.40;99.90;;;;;;4972647;28;20041;-74
2022/03/01 06:00:12;;;;;;;12.05;3.20;;;24.50;99.90;;;;;;4971741;28;20037;-75
2022/03/01 06:02:40;;;;;;;14.23;2.22;;;24.50;99.90;;;;;;4972738;28;20554;-74
2022/03/01 06:05:08;;;;;;;13.75;2.47;;;24.50;99.90;;;;;;4987816;28;20037;-73
2022/03/01 06:07:36;;;;;;;12.77;2.85;;;24.30;99.90;;;;;;4988218;28;20592;-73
2022/03/01 06:10:05;;;;;;;15.85;3.13;;;24.30;99.90;;;;;;4973546;28;20038;-73
2022/03/01 06:12:34;;;;;;;18.77;3.40;;;24.30;99.90;;;;;;4971804;28;20066;-73
2022/03/01 06:15:02;;;;;;;17.13;3.17;;;24.30;99.90;;;;;;4973394;28;20034;-73
2022/03/01 06:17:29;;;;;;;14.07;2.58;;;24.30;99.90;;;;;;4973000;28;20018;-72
2022/03/01 06:19:57;;;;;;;19.08;4.57;;;24.20;99.90;;;;;;4987910;28;20034;-72
2022/03/01 06:22:25;;;;;;;18.17;3.05;;;24.10;99.90;;;;;;4972390;28;20054;-74
2022/03/01 06:24:54;;;;;;;17.33;2.83;;;24.10;99.90;;;;;;4972855;28;20114;-73
2022/03/01 06:27:22;;;;;;;17.45;2.70;;;24.10;99.90;;;;;;4971716;28;20071;-73
2022/03/01 06:29:49;;;;;;;14.43;2.72;;;24.20;99.90;;;;;;4972807;28;20551;-73
2022/03/01 06:32:17;;;;;;;12.98;3.33;;;24.10;99.90;;;;;;4971955;28;20038;-72
2022/03/01 06:34:46;;;;;;;10.73;2.15;;;23.80;99.90;;;;;;4972715;28;20034;-72
2022/03/01 06:37:13;;;;;;;14.73;3.38;;;23.50;99.90;;;;;;4971252;28;20030;-72
2022/03/01 06:39:46;;;;;;;15.63;3.20;;;23.20;99.90;;;;;;4987264;28;20050;-72
2022/03/01 06:42:13;;;;;;;;;;;23.00;99.90;;;;;;4972663;28;20026;-72
2022/03/01 06:44:40;;;;;;;18.15;3.58;;;22.80;99.90;;;;;;4972257;28;19906;-72
2022/03/01 06:47:08;;;;;;;18.40;3.03;;;22.70;99.90;;;;;;4972628;28;20038;-73
2022/03/01 06:49:35;;;;;;;17.50;4.45;;;22.60;99.90;;;;;;4973131;28;20031;-72
2022/03/01 06:52:04;;;;;;;20.70;3.60;;;22.50;99.90;;;;;;4972556;28;20074;-73
2022/03/01 06:54:31;;;;;;;21.83;4.07;;;22.40;99.90;;;;;;4972367;28;20105;-73
2022/03/01 06:56:59;;;;;;;10.88;2.67;;;22.40;99.90;;;;;;4972053;28;20579;-72
2022/03/01 06:59:26;;;;;;;14.68;3.05;;;22.20;99.90;;;;;;4971163;28;20039;-71
2022/03/01 07:01:55;;;;;;;14.68;3.47;;;22.00;99.90;;;;;;4972213;28;20384;-72
2022/03/01 07:04:22;;;;;;;12.43;3.50;;;22.00;99.90;;;;;;4972168;28;20531;-73
2022/03/01 07:06:49;;;;;;;17.25;3.35;;;22.00;99.90;;;;;;4971972;28;20033;-72
2022/03/01 07:09:17;;;;;;;15.40;2.92;;;22.10;99.90;;;;;;4971881;28;20138;-72
2022/03/01 07:11:44;;;;;;;12.45;3.03;;;22.00;99.90;;;;;;4971743;28;20030;-73
2022/03/01 07:14:11;;;;;;;12.98;2.17;;;22.00;99.90;;;;;;4972213;28;20109;-73
2022/03/01 07:16:38;;;;;;;13.70;2.17;;;22.00;99.90;;;;;;4971981;28;20361;-73
2022/03/01 07:19:06;;;;;;;14.38;2.40;;;22.00;99.90;;;;;;4951570;28;20626;-73
2022/03/01 07:21:33;;;;;;;10.55;2.38;;;22.00;99.90;;;;;;4964571;28;20034;-74
2022/03/01 07:24:00;;;;;;;21.52;4.43;;;22.00;99.90;;;;;;4971530;28;20483;-74
2022/03/01 07:26:28;;;;;;;14.60;3.05;;;22.10;99.90;;;;;;4971970;28;20038;-73
2022/03/01 07:28:55;;;;;;;16.52;3.75;;;22.20;99.90;;;;;;4972197;28;20034;-72
2022/03/01 07:31:22;;;;;;;18.20;2.97;;;22.20;99.90;;;;;;4970936;28;20015;-72
2022/03/01 07:33:49;;;;;;;22.17;3.83;;;22.20;99.90;;;;;;4968301;28;20074;-72
2022/03/01 07:36:17;;;;;;;12.63;3.10;;;22.30;99.90;;;;;;4974609;28;20027;-72
2022/03/01 07:38:44;;;;;;;21.92;3.47;;;22.30;99.90;;;;;;4975684;28;20066;-74
2022/03/01 07:41:11;;;;;;;15.70;2.75;;;22.30;99.90;;;;;;4976183;28;20030;-73
2022/03/01 07:43:39;;;;;;;13.60;3.15;;;22.40;99.90;;;;;;4991077;28;20034;-74
2022/03/01 07:46:11;;;;;;;15.27;2.40;;;22.40;99.90;;;;;;4976148;28;20026;-74
2022/03/01 07:48:40;;;;;;;16.45;3.30;;;22.40;99.90;;;;;;4975339;28;20025;-75
2022/03/01 07:51:07;;;;;;;12.52;2.60;;;22.40;99.90;;;;;;4971607;28;20034;-74
2022/03/01 07:53:35;;;;;;;16.42;5.00;;;22.40;99.90;;;;;;4975654;28;20090;-76
2022/03/01 07:56:02;;;;;;;22.80;5.28;;;22.30;99.90;;;;;;4974060;28;20030;-73
2022/03/01 07:58:29;;;;;;;14.93;2.97;;;22.20;99.90;;;;;;4975329;28;20443;-73
2022/03/01 08:00:57;;;;;;;20.75;5.05;;;22.10;99.90;;;;;;4972457;28;20035;-74
2022/03/01 08:03:24;;;;;;;19.15;3.92;;;21.90;99.90;;;;;;4975313;28;20022;-73
2022/03/01 08:05:51;;;;;;;18.40;3.05;;;21.70;99.90;;;;;;4974880;28;20030;-73
2022/03/01 08:08:18;;;;;;;17.65;3.63;;;21.60;99.90;;;;;;4975195;28;20023;-73
2022/03/01 08:10:46;;;;;;;22.98;4.75;;;21.40;99.90;;;;;;4974344;28;20042;-73
2022/03/01 08:13:13;;;;;;;30.98;6.03;;;21.40;99.90;;;;;;4975149;28;20019;-73
2022/03/01 08:15:40;;;;;;;19.70;4.05;;;21.30;99.90;;;;;;4973769;28;20027;-73
2022/03/01 08:18:08;;;;;;;22.20;4.28;;;21.30;99.90;;;;;;4974072;28;20047;-73
2022/03/01 08:20:35;;;;;;;21.70;3.38;;;21.30;99.90;;;;;;4975364;28;20023;-73
2022/03/01 08:23:03;;;;;;;23.42;4.53;;;21.30;99.90;;;;;;4975591;28;20486;-73
2022/03/01 08:25:30;;;;;;;19.42;3.83;;;21.30;99.90;;;;;;4975016;28;20527;-73
2022/03/01 08:27:58;;;;;;;23.20;4.20;;;21.20;99.90;;;;;;4974745;28;20480;-73
2022/03/01 08:30:26;;;;;;;23.02;3.30;;;21.20;99.90;;;;;;4973873;28;20596;-73
2022/03/01 08:32:54;;;;;;;17.90;3.47;;;21.20;99.90;;;;;;4974083;28;20114;-75
2022/03/01 08:35:21;;;;;;;17.70;2.95;;;21.20;99.90;;;;;;4990030;28;20118;-73
2022/03/01 08:37:51;;;;;;;21.75;4.05;;;21.30;99.90;;;;;;4974462;28;20118;-73
2022/03/01 08:40:21;;;;;;;23.38;3.80;;;21.30;99.90;;;;;;4975147;28;20034;-81
2022/03/01 08:42:49;;;;;;;17.95;4.30;;;21.30;99.90;;;;;;4974994;28;20038;-75
2022/03/01 08:45:16;;;;;;;26.77;6.57;;;21.30;99.90;;;;;;4974352;28;20030;-73
2022/03/01 08:47:43;;;;;;;18.67;4.03;;;21.40;99.90;;;;;;4974781;28;20027;-81
2022/03/01 08:50:11;;;;;;;17.98;5.22;;;21.40;99.90;;;;;;4975367;28;20392;-79
2022/03/01 08:52:39;;;;;;;27.30;6.00;;;21.40;99.90;;;;;;4974467;28;20022;-71
2022/03/01 08:55:08;;;;;;;17.90;5.07;;;21.40;99.90;;;;;;4975171;28;20390;-77
2022/03/01 08:57:36;;;;;;;25.55;6.55;;;21.30;99.90;;;;;;4974993;28;20023;-73
2022/03/01 09:00:10;;;;;;;16.33;3.53;;;21.20;99.90;;;;;;4974923;28;20047;-77
2022/03/01 09:02:37;;;;;;;18.20;4.32;;;21.20;99.90;;;;;;4975080;28;20031;-78
2022/03/01 09:05:05;;;;;;;20.45;4.57;;;21.10;99.90;;;;;;4976319;28;20023;-78
2022/03/01 09:07:34;;;;;;;17.88;4.35;;;21.10;99.90;;;;;;4975268;28;20027;-73
2022/03/01 09:10:02;;;;;;;21.85;4.65;;;21.00;99.90;;;;;;4975276;28;20019;-77
2022/03/01 09:12:29;;;;;;;13.38;3.05;;;20.90;99.90;;;;;;4975473;28;20025;-74
2022/03/01 09:14:56;;;;;;;37.70;19.05;;;21.00;99.90;;;;;;4975353;28;20027;-80
2022/03/01 09:17:24;;;;;;;19.58;7.65;;;21.00;99.90;;;;;;4974591;28;20110;-75
2022/03/01 09:19:52;;;;;;;22.35;4.55;;;21.00;99.90;;;;;;4974242;28;20034;-73
2022/03/01 09:22:19;;;;;;;15.85;4.32;;;21.00;99.90;;;;;;4974523;28;20494;-74
2022/03/01 09:24:46;;;;;;;18.00;5.00;;;21.00;99.90;;;;;;4974066;28;20027;-73
2022/03/01 09:27:14;;;;;;;26.92;6.63;;;21.00;99.90;;;;;;4974124;28;20023;-76
2022/03/01 09:29:42;;;;;;;14.07;3.33;;;21.10;99.90;;;;;;4974250;28;20051;-71
2022/03/01 09:32:11;;;;;;;26.27;4.10;;;21.10;99.90;;;;;;4974489;28;20375;-79
2022/03/01 09:34:38;;;;;;;23.17;4.30;;;21.10;99.90;;;;;;4972989;28;20384;-73
2022/03/01 09:37:05;;;;;;;18.35;4.10;;;21.10;99.90;;;;;;4974141;28;20454;-71
2022/03/01 09:39:33;;;;;;;17.10;3.92;;;21.10;99.90;;;;;;4974364;28;20094;-72
2022/03/01 09:42:00;;;;;;;18.10;3.45;;;21.10;99.90;;;;;;4974687;28;20436;-74
2022/03/01 09:44:28;;;;;;;18.27;3.38;;;21.10;99.90;;;;;;4974557;28;20027;-73
2022/03/01 09:46:56;;;;;;;20.15;3.75;;;21.20;99.90;;;;;;4974276;28;20357;-74
2022/03/01 09:49:23;;;;;;;19.65;3.70;;;21.10;99.90;;;;;;4974491;28;20046;-73
2022/03/01 09:51:51;;;;;;;15.65;2.60;;;21.10;99.90;;;;;;4974414;28;20042;-78
2022/03/01 09:54:18;;;;;;;17.02;3.28;;;21.10;99.90;;;;;;4974261;28;20038;-73
2022/03/01 09:56:45;;;;;;;17.83;2.90;;;21.10;99.90;;;;;;4973102;28;20063;-71
2022/03/01 09:59:13;;;;;;;12.07;2.67;;;21.10;99.90;;;;;;4973600;28;20407;-72
2022/03/01 10:01:48;;;;;;;16.05;2.97;;;21.10;99.90;;;;;;4971340;28;20117;-73
2022/03/01 10:04:16;;;;;;;19.23;3.95;;;21.10;99.90;;;;;;4974151;28;20055;-72
2022/03/01 10:06:48;;;;;;;12.68;2.15;;;21.10;99.90;;;;;;4973954;28;20431;-75
2022/03/01 10:09:20;;;;;;;11.55;2.65;;;21.10;99.90;;;;;;4973588;28;20026;-75
2022/03/01 10:11:49;;;;;;;18.02;2.72;;;21.00;99.90;;;;;;4973982;28;20054;-76
2022/03/01 10:14:31;;;;;;;10.43;2.58;;;21.00;99.90;;;;;;4973569;28;20066;-75
2022/03/01 10:16:58;;;;;;;10.20;2.03;;;21.10;99.90;;;;;;4975137;28;20023;-75
2022/03/01 10:19:26;;;;;;;12.65;2.42;;;21.10;99.90;;;;;;4974381;28;20525;-78
2022/03/01 10:22:04;;;;;;;12.77;2.03;;;21.10;99.90;;;;;;4973106;28;20027;-76
2022/03/01 10:24:31;;;;;;;9.75;1.83;;;21.10;99.90;;;;;;4973137;28;20019;-76
2022/03/01 10:27:05;;;;;;;17.58;3.60;;;21.10;99.90;;;;;;4973059;28;20099;-76
2022/03/01 10:29:32;;;;;;;8.77;1.88;;;21.20;99.90;;;;;;4988476;28;20599;-77
2022/03/01 10:32:12;;;;;;;15.50;3.38;;;21.20;99.90;;;;;;4972788;28;20503;-73
2022/03/01 10:34:39;;;;;;;12.70;2.60;;;21.10;99.90;;;;;;4973570;28;20034;-76
2022/03/01 10:37:06;;;;;;;14.50;2.58;;;21.10;99.90;;;;;;4973232;28;20049;-75
2022/03/01 10:39:34;;;;;;;13.85;2.75;;;21.10;99.90;;;;;;4973500;28;20037;-75
2022/03/01 10:42:05;;;;;;;13.05;2.22;;;21.20;99.90;;;;;;4973407;28;20026;-79
2022/03/01 10:44:32;;;;;;;13.55;2.90;;;21.20;99.90;;;;;;4973414;28;20034;-76
2022/03/01 10:47:02;;;;;;;16.05;2.67;;;21.20;99.90;;;;;;4973179;28;20023;-76
2022/03/01 10:49:35;;;;;;;12.25;1.80;;;21.20;99.90;;;;;;4973246;28;20029;-76
2022/03/01 10:52:10;;;;;;;10.23;1.25;;;21.30;99.90;;;;;;4972878;28;20106;-77
2022/03/01 10:54:39;;;;;;;8.70;1.15;;;21.30;99.90;;;;;;4972553;28;20022;-76
2022/03/01 10:57:27;;;;;;;13.05;2.97;;;21.30;99.90;;;;;;4973131;28;20029;-75
2022/03/01 10:59:54;;;;;;;12.27;1.88;;;21.20;99.90;;;;;;4973200;28;20038;-75
2022/03/01 11:02:22;;;;;;;13.07;1.52;;;21.20;99.90;;;;;;4973006;28;20102;-75
2022/03/01 11:04:51;;;;;;;9.45;2.00;;;21.20;99.90;;;;;;4972091;28;20035;-73
2022/03/01 11:07:20;;;;;;;10.50;2.03;;;21.20;99.90;;;;;;4972895;28;20041;-76
2022/03/01 11:09:48;;;;;;;15.77;1.90;;;21.20;99.90;;;;;;4972510;28;20022;-75
2022/03/01 11:12:18;;;;;;;12.52;2.63;;;21.30;99.90;;;;;;4972055;28;20023;-77
2022/03/01 11:15:05;;;;;;;11.82;2.20;;;21.30;99.90;;;;;;4972595;28;20019;-75
2022/03/01 11:17:53;;;;;;;13.70;3.08;;;21.30;99.90;;;;;;4972129;28;20034;-77
2022/03/01 11:20:30;;;;;;;12.93;2.40;;;21.30;99.90;;;;;;4972641;28;20057;-76
2022/03/01 11:22:58;;;;;;;12.38;2.15;;;21.30;99.90;;;;;;4973192;28;20030;-79
2022/03/01 11:25:27;;;;;;;12.98;2.08;;;21.40;99.90;;;;;;4973327;28;20062;-79
2022/03/01 11:28:08;;;;;;;18.05;2.80;;;21.40;99.90;;;;;;4972744;28;20034;-79
2022/03/01 11:30:55;;;;;;;15.60;3.45;;;21.40;99.90;;;;;;4972729;28;20053;-76
2022/03/01 11:33:36;;;;;;;19.63;3.58;;;21.30;99.90;;;;;;4972329;28;20031;-79
2022/03/01 11:36:06;;;;;;;17.67;2.65;;;21.40;99.90;;;;;;4972284;28;20022;-76
2022/03/01 11:38:34;;;;;;;21.38;3.83;;;21.30;99.90;;;;;;4973156;28;20039;-78
2022/03/01 11:41:19;;;;;;;24.98;4.50;;;21.30;99.90;;;;;;4974346;28;20443;-77
2022/03/01 11:43:53;;;;;;;23.33;3.15;;;21.40;99.90;;;;;;4973996;28;20078;-79
2022/03/01 11:46:21;;;;;;;20.90;2.80;;;21.40;99.90;;;;;;4978892;28;20047;-77
2022/03/01 11:48:58;;;;;;;15.05;2.97;;;21.40;99.90;;;;;;4974589;28;20510;-78
2022/03/01 11:51:34;;;;;;;13.00;2.33;;;21.40;99.90;;;;;;4974710;28;20487;-79
2022/03/01 11:54:08;;;;;;;15.57;2.35;;;21.40;99.90;;;;;;4980424;28;20018;-78
2022/03/01 11:56:41;;;;;;;9.95;3.03;;;21.40;99.90;;;;;;4979873;28;20391;-74
2022/03/01 11:59:12;;;;;;;17.50;2.40;;;21.40;99.90;;;;;;4974267;28;20562;-77
2022/03/01 12:01:42;;;;;;;8.60;2.00;;;21.40;99.90;;;;;;4974725;28;20076;-80
2022/03/01 12:04:30;;;;;;;11.82;2.15;;;21.40;99.90;;;;;;4973765;28;20494;-77
2022/03/01 12:06:58;;;;;;;14.73;3.08;;;21.40;99.90;;;;;;4975223;28;20479;-79
2022/03/01 12:09:39;;;;;;;15.95;2.50;;;21.40;99.90;;;;;;4972929;28;20468;-81
2022/03/01 12:12:11;;;;;;;14.88;3.35;;;21.40;99.90;;;;;;4973615;28;20070;-83
2022/03/01 12:14:38;;;;;;;16.23;2.53;;;21.40;99.90;;;;;;4972921;28;20027;-77
2022/03/01 12:17:20;;;;;;;21.90;3.00;;;21.40;99.90;;;;;;4973657;28;20026;-74
2022/03/01 12:20:20;;;;;;;14.07;2.05;;;21.40;99.90;;;;;;4976025;28;20035;-78
2022/03/01 12:23:01;;;;;;;;;;;21.40;99.90;;;;;;4977530;28;20391;-84
2022/03/01 12:25:34;;;;;;;12.90;2.08;;;21.40;99.90;;;;;;4976970;28;19956;-77
2022/03/01 12:28:07;;;;;;;13.43;2.13;;;21.40;99.90;;;;;;4976416;28;20050;-78
2022/03/01 12:30:41;;;;;;;13.63;1.80;;;21.40;99.90;;;;;;4975923;28;20069;-77
2022/03/01 12:33:13;;;;;;;18.38;2.50;;;21.40;99.90;;;;;;4976733;28;20101;-77
2022/03/01 12:35:42;;;;;;;16.63;2.90;;;21.40;99.90;;;;;;4976230;28;20126;-77
2022/03/01 12:38:12;;;;;;;14.88;2.53;;;21.40;99.90;;;;;;4976332;28;20026;-79
2022/03/01 12:40:42;;;;;;;15.05;2.45;;;21.40;99.90;;;;;;4976478;28;20026;-77
2022/03/01 12:43:12;;;;;;;10.75;2.03;;;21.40;99.90;;;;;;4974507;28;20026;-79
2022/03/01 12:45:54;;;;;;;17.35;3.75;;;21.40;99.90;;;;;;4976074;28;20026;-81